createdAt,value
2022-10-21T00:02:07.649Z,7.85
2022-10-21T00:04:53.144Z,7.45
2022-10-21T00:07:38.623Z,6.90
2022-10-21T00:10:24.010Z,7.60
2022-10-21T00:13:09.090Z,7.72
2022-10-21T00:16:03.472Z,7.82
2022-10-21T00:18:49.214Z,7.65
2022-10-21T00:21:36.408Z,7.78
2022-10-21T00:24:21.574Z,7.35
2022-10-21T00:27:07.059Z,7.63
2022-10-21T00:29:52.207Z,6.90
2022-10-21T00:32:37.608Z,7.80
2022-10-21T00:35:22.867Z,7.78
2022-10-21T00:38:08.262Z,7.43
2022-10-21T00:40:54.105Z,6.80
2022-10-21T00:43:57.526Z,7.25
2022-10-21T00:46:48.939Z,8.05
2022-10-21T00:50:01.860Z,7.35
2022-10-21T00:52:47.358Z,6.90
2022-10-21T00:55:36.627Z,7.25
2022-10-21T00:58:26.317Z,8.00
2022-10-21T01:01:11.835Z,7.63
2022-10-21T01:03:56.930Z,7.55
2022-10-21T01:06:42.852Z,7.82
2022-10-21T01:09:29.883Z,7.15
2022-10-21T01:12:30.863Z,8.43
2022-10-21T01:15:32.219Z,7.07
2022-10-21T01:18:26.591Z,7.80
2022-10-21T01:21:23.943Z,7.70
2022-10-21T01:24:57.062Z,7.35
2022-10-21T01:28:05.650Z,7.90
2022-10-21T01:31:01.087Z,7.47
2022-10-21T01:33:59.270Z,7.53
2022-10-21T01:36:56.980Z,7.97
2022-10-21T01:39:49.637Z,7.85
2022-10-21T01:42:56.538Z,7.57
2022-10-21T01:45:48.909Z,7.95
2022-10-21T01:48:43.260Z,7.50
2022-10-21T01:51:29.536Z,8.13
2022-10-21T01:54:25.146Z,7.70
2022-10-21T01:57:14.705Z,7.97
2022-10-21T02:00:01.506Z,7.32
2022-10-21T02:05:35.730Z,7.90
2022-10-21T02:08:21.431Z,8.07
2022-10-21T02:11:09.434Z,8.32
2022-10-21T02:14:02.767Z,9.10
2022-10-21T02:16:52.378Z,7.90
2022-10-21T02:19:38.079Z,8.23
2022-10-21T02:22:24.509Z,7.55
2022-10-21T02:25:25.465Z,8.88
2022-10-21T02:28:13.026Z,7.82
2022-10-21T02:31:07.848Z,7.65
2022-10-21T02:34:02.194Z,7.88
2022-10-21T02:37:18.614Z,8.35
2022-10-21T02:40:11.629Z,8.20
2022-10-21T02:43:02.853Z,8.95
2022-10-21T02:45:49.885Z,8.38
2022-10-21T02:48:37.353Z,8.25
2022-10-21T02:51:22.783Z,7.95
2022-10-21T02:54:08.259Z,7.97
2022-10-21T02:56:53.699Z,8.43
2022-10-21T02:59:38.939Z,8.40
2022-10-21T03:02:24.085Z,7.72
2022-10-21T03:05:09.786Z,8.70
2022-10-21T03:07:54.916Z,8.52
2022-10-21T03:10:40.593Z,8.43
2022-10-21T03:13:25.599Z,8.95
2022-10-21T03:16:11.046Z,9.05
2022-10-21T03:18:56.247Z,8.73
2022-10-21T03:21:41.419Z,9.05
2022-10-21T03:24:28.707Z,8.70
2022-10-21T03:27:14.314Z,9.25
2022-10-21T03:29:59.908Z,8.57
2022-10-21T03:32:45.358Z,9.00
2022-10-21T03:35:30.600Z,8.73
2022-10-21T03:38:15.818Z,8.63
2022-10-21T03:41:01.159Z,9.50
2022-10-21T03:43:46.772Z,9.40
2022-10-21T03:46:32.183Z,9.32
2022-10-21T03:49:21.430Z,10.00
2022-10-21T03:52:07.039Z,10.68
2022-10-21T03:54:52.387Z,9.20
2022-10-21T03:57:37.894Z,9.77
2022-10-21T04:00:26.030Z,10.32
2022-10-21T04:03:13.429Z,9.98
2022-10-21T04:05:58.864Z,9.40
2022-10-21T04:08:44.235Z,10.10
2022-10-21T04:11:29.290Z,10.55
2022-10-21T04:14:15.522Z,8.93
2022-10-21T04:17:06.730Z,9.48
2022-10-21T04:19:52.134Z,9.13
2022-10-21T04:22:37.739Z,9.23
2022-10-21T04:25:23.185Z,9.40
2022-10-21T04:28:08.381Z,10.02
2022-10-21T04:30:53.976Z,9.82
2022-10-21T04:33:39.096Z,10.50
2022-10-21T04:36:24.565Z,10.52
2022-10-21T04:39:09.707Z,10.07
2022-10-21T04:41:55.965Z,9.43
2022-10-21T04:44:41.496Z,10.63
2022-10-21T04:47:26.641Z,10.07
2022-10-21T04:50:11.848Z,10.63
2022-10-21T04:52:57.328Z,10.43
2022-10-21T04:55:42.895Z,10.68
2022-10-21T04:58:28.128Z,10.93
2022-10-21T05:01:13.441Z,10.48
2022-10-21T05:03:58.880Z,10.52
2022-10-21T05:06:44.364Z,9.80
2022-10-21T05:09:29.411Z,11.77
2022-10-21T05:12:14.825Z,11.23
2022-10-21T05:15:02.156Z,10.98
2022-10-21T05:17:47.494Z,10.18
2022-10-21T05:20:32.959Z,10.90
2022-10-21T05:23:18.934Z,10.95
2022-10-21T05:26:04.475Z,10.80
2022-10-21T05:28:49.696Z,11.13
2022-10-21T05:31:35.019Z,10.90
2022-10-21T05:34:20.132Z,11.27
2022-10-21T05:37:06.001Z,12.27
2022-10-21T05:39:44.988Z,11.50
2022-10-21T05:42:30.479Z,11.70
2022-10-21T05:45:16.068Z,11.45
2022-10-21T05:48:01.319Z,11.20
2022-10-21T05:50:47.711Z,11.73
2022-10-21T05:53:32.921Z,12.65
2022-10-21T05:56:18.281Z,11.38
2022-10-21T05:59:05.483Z,11.57
2022-10-21T06:01:53.191Z,12.23
2022-10-21T06:04:38.992Z,10.93
2022-10-21T06:07:24.268Z,11.57
2022-10-21T06:10:09.934Z,11.05
2022-10-21T06:12:55.521Z,11.30
2022-10-21T06:15:40.672Z,10.57
2022-10-21T06:18:26.395Z,12.68
2022-10-21T06:21:11.958Z,11.30
2022-10-21T06:23:57.182Z,11.32
2022-10-21T06:26:42.401Z,12.40
2022-10-21T06:29:27.799Z,12.18
2022-10-21T06:32:13.077Z,13.00
2022-10-21T06:34:58.544Z,11.52
2022-10-21T06:37:43.694Z,11.98
2022-10-21T06:40:28.806Z,11.52
2022-10-21T06:43:15.242Z,12.95
2022-10-21T06:46:02.648Z,13.35
2022-10-21T06:48:48.579Z,12.35
2022-10-21T06:51:33.782Z,12.15
2022-10-21T06:54:18.956Z,11.85
2022-10-21T06:57:04.719Z,12.27
2022-10-21T06:59:49.923Z,12.55
2022-10-21T07:02:35.825Z,12.68
2022-10-21T07:05:21.124Z,11.93
2022-10-21T07:08:10.559Z,12.80
2022-10-21T07:10:58.006Z,10.98
2022-10-21T07:13:43.081Z,11.82
2022-10-21T07:16:34.173Z,12.07
2022-10-21T07:19:21.827Z,12.55
2022-10-21T07:22:07.069Z,12.50
2022-10-21T07:24:52.313Z,11.50
2022-10-21T07:27:37.937Z,12.63
2022-10-21T07:30:23.687Z,12.13
2022-10-21T07:33:09.510Z,12.18
2022-10-21T07:36:06.664Z,11.20
2022-10-21T07:38:53.622Z,12.15
2022-10-21T07:41:48.899Z,11.18
2022-10-21T07:44:34.318Z,11.45
2022-10-21T07:47:19.525Z,11.45
2022-10-21T07:50:05.005Z,11.75
2022-10-21T07:52:58.299Z,11.57
2022-10-21T07:56:06.604Z,11.93
2022-10-21T07:58:52.890Z,11.57
2022-10-21T08:01:40.328Z,11.60
2022-10-21T08:04:29.661Z,11.20
2022-10-21T08:07:14.757Z,10.90
2022-10-21T08:10:00.623Z,10.38
2022-10-21T08:13:11.120Z,12.50
2022-10-21T08:15:57.025Z,11.40
2022-10-21T08:18:42.226Z,12.85
2022-10-21T08:21:28.239Z,11.57
2022-10-21T08:24:13.784Z,11.38
2022-10-21T08:26:59.587Z,11.48
2022-10-21T08:29:46.841Z,11.13
2022-10-21T08:32:32.291Z,11.57
2022-10-21T08:35:17.720Z,11.35
2022-10-21T08:38:03.147Z,10.80
2022-10-21T08:40:51.049Z,12.20
2022-10-21T08:43:39.650Z,11.43
2022-10-21T08:46:32.216Z,11.35
2022-10-21T08:49:25.048Z,11.43
2022-10-21T08:52:21.255Z,12.05
2022-10-21T08:55:15.741Z,11.13
2022-10-21T08:58:02.432Z,10.57
2022-10-21T09:01:17.613Z,10.85
2022-10-21T09:04:18.840Z,11.30
2022-10-21T09:07:16.330Z,11.00
2022-10-21T09:10:16.104Z,10.80
2022-10-21T09:13:12.795Z,10.55
2022-10-21T09:16:14.316Z,11.23
2022-10-21T09:19:14.887Z,12.80
2022-10-21T09:22:41.315Z,12.98
2022-10-21T09:25:54.837Z,11.50
2022-10-21T09:28:40.274Z,11.80
2022-10-21T09:31:28.738Z,11.30
2022-10-21T09:34:21.074Z,9.73
2022-10-21T09:37:13.613Z,11.35
2022-10-21T09:43:22.984Z,10.93
2022-10-21T09:46:12.984Z,10.48
2022-10-21T09:52:07.424Z,11.45
2022-10-21T09:54:52.934Z,12.23
2022-10-21T09:57:48.285Z,11.65
2022-10-21T10:00:44.627Z,10.93
2022-10-21T10:03:36.538Z,10.70
2022-10-21T10:06:36.334Z,11.15
2022-10-21T10:09:29.143Z,10.48
2022-10-21T10:12:22.416Z,10.70
2022-10-21T10:15:32.113Z,10.30
2022-10-21T10:18:24.478Z,10.80
2022-10-21T10:21:16.734Z,10.95
2022-10-21T10:24:03.024Z,11.20
2022-10-21T10:26:49.338Z,11.75
2022-10-21T10:29:35.773Z,10.90
2022-10-21T10:32:24.748Z,11.38
2022-10-21T10:35:35.610Z,10.80
2022-10-21T10:38:34.056Z,11.57
2022-10-21T10:41:19.453Z,11.15
2022-10-21T10:44:12.288Z,10.85
2022-10-21T10:47:01.300Z,11.80
2022-10-21T10:49:47.309Z,11.13
2022-10-21T10:52:32.796Z,10.90
2022-10-21T10:55:18.544Z,9.65
2022-10-21T10:58:12.498Z,9.52
2022-10-21T11:01:00.916Z,10.88
2022-10-21T11:03:59.582Z,9.93
2022-10-21T11:06:51.161Z,10.70
2022-10-21T11:09:37.394Z,10.10
2022-10-21T11:12:26.473Z,10.93
2022-10-21T11:15:15.865Z,10.57
2022-10-21T11:18:24.213Z,10.82
2022-10-21T11:21:16.377Z,10.48
2022-10-21T11:24:19.997Z,10.77
2022-10-21T11:27:46.472Z,10.20
2022-10-21T11:31:10.449Z,10.25
2022-10-21T11:34:18.740Z,10.27
2022-10-21T11:37:37.468Z,11.27
2022-10-21T11:40:32.641Z,10.55
2022-10-21T11:43:20.785Z,11.07
2022-10-21T11:46:45.064Z,11.20
2022-10-21T11:49:55.856Z,11.70
2022-10-21T11:52:49.409Z,10.25
2022-10-21T11:55:38.732Z,11.10
2022-10-21T11:58:41.440Z,10.57
2022-10-21T12:01:40.877Z,10.75
2022-10-21T12:07:42.636Z,11.85
2022-10-21T12:10:34.415Z,11.90
2022-10-21T12:13:31.000Z,11.23
2022-10-21T12:16:25.827Z,10.25
2022-10-21T12:19:13.270Z,11.05
2022-10-21T12:21:58.549Z,10.30
2022-10-21T12:24:56.827Z,11.25
2022-10-21T12:27:47.276Z,10.60
2022-10-21T12:30:53.781Z,10.73
2022-10-21T12:33:43.191Z,9.55
2022-10-21T12:36:40.722Z,10.35
2022-10-21T12:39:32.464Z,10.77
2022-10-21T12:42:22.596Z,10.60
2022-10-21T12:45:26.708Z,10.90
2022-10-21T12:48:33.154Z,10.43
2022-10-21T12:51:36.661Z,11.52
2022-10-21T12:54:29.549Z,11.10
2022-10-21T12:57:39.973Z,10.82
2022-10-21T13:00:29.172Z,9.63
2022-10-21T13:03:19.990Z,9.52
2022-10-21T13:06:06.189Z,9.20
2022-10-21T13:08:52.464Z,9.02
2022-10-21T13:11:39.903Z,8.73
2022-10-21T13:14:35.169Z,9.50
2022-10-21T13:17:21.575Z,9.23
2022-10-21T13:20:07.015Z,9.00
2022-10-21T13:23:03.434Z,8.23
2022-10-21T13:26:06.475Z,9.77
2022-10-21T13:29:19.540Z,8.25
2022-10-21T13:32:22.382Z,8.57
2022-10-21T13:35:36.870Z,8.15
2022-10-21T13:38:33.634Z,8.70
2022-10-21T13:41:27.808Z,8.00
2022-10-21T13:44:37.543Z,9.02
2022-10-21T13:47:33.842Z,9.82
2022-10-21T13:50:26.041Z,9.13
2022-10-21T13:53:17.387Z,8.38
2022-10-21T13:56:06.034Z,8.82
2022-10-21T13:58:52.516Z,9.45
2022-10-21T14:01:49.554Z,8.52
2022-10-21T14:04:40.559Z,9.00
2022-10-21T14:07:26.871Z,9.07
2022-10-21T14:10:15.688Z,9.75
2022-10-21T14:13:01.548Z,10.80
2022-10-21T14:15:49.271Z,10.07
2022-10-21T14:18:44.765Z,11.82
2022-10-21T14:21:37.961Z,11.45
2022-10-21T14:27:36.295Z,11.43
2022-10-21T14:30:27.413Z,10.98
2022-10-21T14:33:17.953Z,10.00
2022-10-21T14:36:20.474Z,10.63
2022-10-21T14:39:23.628Z,10.57
2022-10-21T14:42:34.884Z,10.77
2022-10-21T14:45:35.017Z,10.20
2022-10-21T14:48:30.629Z,10.65
2022-10-21T14:51:22.453Z,11.82
2022-10-21T14:54:36.388Z,10.75
2022-10-21T14:57:36.770Z,9.68
2022-10-21T15:00:30.171Z,10.98
2022-10-21T15:03:16.273Z,12.80
2022-10-21T15:06:13.546Z,9.55
2022-10-21T15:09:05.050Z,10.32
2022-10-21T15:11:50.476Z,11.45
2022-10-21T15:14:35.954Z,11.88
2022-10-21T15:17:22.701Z,12.02
2022-10-21T15:20:16.005Z,11.30
2022-10-21T15:23:01.597Z,12.48
2022-10-21T15:25:46.989Z,11.65
2022-10-21T15:28:33.924Z,10.65
2022-10-21T15:31:25.068Z,11.15
2022-10-21T15:34:15.018Z,11.15
2022-10-21T15:37:00.216Z,11.13
2022-10-21T15:39:45.500Z,12.20
2022-10-21T15:42:31.091Z,11.95
2022-10-21T15:45:19.424Z,11.45
2022-10-21T15:48:09.277Z,11.55
2022-10-21T15:50:59.988Z,11.85
2022-10-21T15:53:45.303Z,11.48
2022-10-21T15:56:30.746Z,11.70
2022-10-21T15:59:18.915Z,11.43
2022-10-21T16:04:52.997Z,12.65
2022-10-21T16:07:38.494Z,11.98
2022-10-21T16:10:30.511Z,13.13
2022-10-21T16:13:15.995Z,12.57
2022-10-21T16:16:01.903Z,12.20
2022-10-21T16:18:48.005Z,12.15
2022-10-21T16:21:33.554Z,12.15
2022-10-21T16:24:18.852Z,11.80
2022-10-21T16:27:11.646Z,10.98
2022-10-21T16:29:57.056Z,13.98
2022-10-21T16:32:42.463Z,12.52
2022-10-21T16:35:27.864Z,12.25
2022-10-21T16:38:13.328Z,11.40
2022-10-21T16:40:58.759Z,12.18
2022-10-21T16:43:44.455Z,13.30
2022-10-21T16:46:49.372Z,11.93
2022-10-21T16:49:34.769Z,12.20
2022-10-21T16:52:20.174Z,12.70
2022-10-21T16:55:06.994Z,13.10
2022-10-21T16:57:52.311Z,14.35
2022-10-21T17:00:37.783Z,16.17
2022-10-21T17:03:23.015Z,16.95
2022-10-21T17:06:08.896Z,15.93
2022-10-21T17:08:55.997Z,15.77
2022-10-21T17:11:42.458Z,16.45
2022-10-21T17:14:28.298Z,17.30
2022-10-21T17:17:21.422Z,15.60
2022-10-21T17:20:07.387Z,17.05
2022-10-21T17:22:52.743Z,16.48
2022-10-21T17:25:38.382Z,16.10
2022-10-21T17:28:24.232Z,18.65
2022-10-21T17:31:17.296Z,19.02
2022-10-21T17:34:06.357Z,18.55
2022-10-21T17:36:51.735Z,21.45
2022-10-21T17:39:36.918Z,18.27
2022-10-21T17:42:22.114Z,16.92
2022-10-21T17:45:09.205Z,17.25
2022-10-21T17:47:54.535Z,16.85
2022-10-21T17:50:40.099Z,17.35
2022-10-21T17:53:27.642Z,19.08
2022-10-21T17:56:12.991Z,18.00
2022-10-21T17:58:58.692Z,17.45
2022-10-21T18:01:44.337Z,19.08
2022-10-21T18:04:31.578Z,16.40
2022-10-21T18:07:17.896Z,21.35
2022-10-21T18:10:04.667Z,20.90
2022-10-21T18:12:50.056Z,19.77
2022-10-21T18:15:37.425Z,20.63
2022-10-21T18:18:23.186Z,21.02
2022-10-21T18:21:12.256Z,20.13
2022-10-21T18:23:58.023Z,19.33
2022-10-21T18:26:43.291Z,21.85
2022-10-21T18:29:28.736Z,19.27
2022-10-21T18:32:14.835Z,18.98
2022-10-21T18:35:00.414Z,19.05
2022-10-21T18:37:45.914Z,18.48
2022-10-21T18:40:31.238Z,20.15
2022-10-21T18:43:16.670Z,20.60
2022-10-21T18:46:03.410Z,18.38
2022-10-21T18:48:48.738Z,19.65
2022-10-21T18:51:34.006Z,18.90
2022-10-21T18:54:19.690Z,18.92
2022-10-21T18:57:07.560Z,17.60
2022-10-21T18:59:54.433Z,19.38
2022-10-21T19:02:40.218Z,19.70
2022-10-21T19:05:25.701Z,19.77
2022-10-21T19:08:10.895Z,18.70
2022-10-21T19:10:56.397Z,23.65
2022-10-21T19:13:41.594Z,21.90
2022-10-21T19:16:26.951Z,20.23
2022-10-21T19:19:13.057Z,18.20
2022-10-21T19:21:58.558Z,21.00
2022-10-21T19:24:43.747Z,19.13
2022-10-21T19:27:29.334Z,20.48
2022-10-21T19:30:14.591Z,21.95
2022-10-21T19:33:02.003Z,18.67
2022-10-21T19:35:47.322Z,18.02
2022-10-21T19:38:50.022Z,18.35
2022-10-21T19:41:35.069Z,19.27
2022-10-21T19:44:20.228Z,19.10
2022-10-21T19:47:05.858Z,17.85
2022-10-21T19:49:51.204Z,17.40
2022-10-21T19:52:36.446Z,17.90
2022-10-21T19:55:21.611Z,17.83
2022-10-21T19:58:06.799Z,17.10
2022-10-21T20:01:08.999Z,18.02
2022-10-21T20:03:55.301Z,17.73
2022-10-21T20:06:40.844Z,19.30
2022-10-21T20:09:26.321Z,20.92
2022-10-21T20:12:11.783Z,21.70
2022-10-21T20:14:57.340Z,20.30
2022-10-21T20:17:42.779Z,18.85
2022-10-21T20:20:27.937Z,19.30
2022-10-21T20:23:13.190Z,17.27
2022-10-21T20:25:59.134Z,19.17
2022-10-21T20:28:44.904Z,18.10
2022-10-21T20:31:30.994Z,18.63
2022-10-21T20:34:16.400Z,21.85
2022-10-21T20:37:01.564Z,22.55
2022-10-21T20:39:46.823Z,19.45
2022-10-21T20:42:32.978Z,19.80
2022-10-21T20:45:19.939Z,20.42
2022-10-21T20:48:05.638Z,22.20
2022-10-21T20:51:00.842Z,20.33
2022-10-21T20:53:51.155Z,21.13
2022-10-21T20:56:38.541Z,20.90
2022-10-21T20:59:23.791Z,22.80
2022-10-21T21:02:09.197Z,21.00
2022-10-21T21:04:54.358Z,23.90
2022-10-21T21:07:39.653Z,23.65
2022-10-21T21:10:25.286Z,21.38
2022-10-21T21:13:10.633Z,20.83
2022-10-21T21:16:08.162Z,20.45
2022-10-21T21:18:59.503Z,19.48
2022-10-21T21:21:44.819Z,19.15
2022-10-21T21:24:30.165Z,19.27
2022-10-21T21:27:15.820Z,19.08
2022-10-21T21:30:01.372Z,21.33
2022-10-21T21:32:46.575Z,22.10
2022-10-21T21:35:32.005Z,22.02
2022-10-21T21:38:17.454Z,21.65
2022-10-21T21:41:05.461Z,20.50
2022-10-21T21:43:53.442Z,19.20
2022-10-21T21:46:38.697Z,20.98
2022-10-21T21:49:24.279Z,19.45
2022-10-21T21:52:09.540Z,20.02
2022-10-21T21:54:56.883Z,18.95
2022-10-21T21:57:42.354Z,17.83
2022-10-21T22:00:27.846Z,18.10
2022-10-21T22:03:13.156Z,18.15
2022-10-21T22:05:58.533Z,19.10
2022-10-21T22:08:44.850Z,19.95
2022-10-21T22:11:32.308Z,17.85
2022-10-21T22:14:17.478Z,19.63
2022-10-21T22:17:02.994Z,19.98
2022-10-21T22:19:52.898Z,19.60
2022-10-21T22:22:39.291Z,19.48
2022-10-21T22:25:24.901Z,19.48
2022-10-21T22:28:10.563Z,17.73
2022-10-21T22:31:04.946Z,19.52
2022-10-21T22:33:51.686Z,18.20
2022-10-21T22:36:37.117Z,19.70
2022-10-21T22:39:22.392Z,18.95
2022-10-21T22:42:08.078Z,18.92
2022-10-21T22:44:53.473Z,19.35
2022-10-21T22:47:39.128Z,19.33
2022-10-21T22:50:24.245Z,19.08
2022-10-21T22:53:09.831Z,20.17
2022-10-21T22:55:55.234Z,20.00
2022-10-21T22:58:40.555Z,17.60
2022-10-21T23:01:30.247Z,17.77
2022-10-21T23:04:17.801Z,18.92
2022-10-21T23:07:02.834Z,17.63
2022-10-21T23:09:48.316Z,17.45
2022-10-21T23:12:33.397Z,18.33
2022-10-21T23:15:18.762Z,16.92
2022-10-21T23:18:04.433Z,16.70
2022-10-21T23:20:49.916Z,17.08
2022-10-21T23:23:36.112Z,19.27
2022-10-21T23:26:21.346Z,17.95
2022-10-21T23:29:06.767Z,17.75
2022-10-21T23:31:54.191Z,16.67
2022-10-21T23:34:41.797Z,18.05
2022-10-21T23:37:27.303Z,17.90
2022-10-21T23:40:13.181Z,16.95
2022-10-21T23:42:58.261Z,15.90
2022-10-21T23:45:43.498Z,15.93
2022-10-21T23:48:28.903Z,14.25
2022-10-21T23:51:14.147Z,14.98
2022-10-21T23:53:59.469Z,15.00
2022-10-21T23:56:45.445Z,15.95
2022-10-21T23:59:31.071Z,16.20
